Huvudsida
METAR-TAF:

METAR-TAF

Flygplatser :

Rijekas flygplats

Rijeka, Kroatien

latitud: 45-13N, longitud: 014-35E, höjd: 85 m

Aktuellt väderrapport

Denna rapport gjordes för 36 minuter sedan, klockan 18:00 UTC
Vind 7 kt från nord/nordost
Temperatur 10°C
Fuktighet 18%
Tryck 1020 hPa
Sikt 10 km eller mer
Inga moln under 1 500 m eller inga cumulonimbus

METAR: LDRI 281800Z 03007KT CAVOK 10/M13 Q1020

Tid: 19:36 (18:36 UTC)

Väderprognos

Denna rapport gjordes för 1 timme och 11 minuter sedan, klockan 17:25 UTC
Prognos gäller från 28 kl. 18 UTC till 29 kl. 18 UTC
Vind 8 kt från nord/nordost
Sikt 10 km eller mer
Inga moln under 1 500 m eller inga cumulonimbus
Blir
från 29 kl. 09 UTC till 29 kl. 11 UTC
Vind 10 kt från syd

TAF: LDRI 281725Z 2818/2918 02008KT CAVOK TX13/2913Z TN03/2904Z BECMG 2909/2911 18010KT

Aktuella väderrapporter och prognoser från 4000 flygplatser (METAR- och TAF-rapporter).

De tillgängliga stationerna syns som gula och röda prickar på kartan.

För musen över prickarna för att se namnen på stationerna.

Klicka sedan för att få väderrapporter och prognoser.

För att ändra kartan: Klicka på de gröna knapparna med ett svart kors på för att zooma in; den gröna knappen med ett streck på för att zooma ut; eller på de gröna pilarna för angränsande kartor.


METAR-TAF: